createdAt,value
2022-10-24T00:01:56.212Z,1.90
2022-10-24T00:04:43.171Z,1.97
2022-10-24T00:07:30.214Z,2.30
2022-10-24T00:10:17.776Z,1.93
2022-10-24T00:13:04.753Z,2.10
2022-10-24T00:15:52.144Z,1.97
2022-10-24T00:18:39.519Z,1.70
2022-10-24T00:21:26.733Z,1.90
2022-10-24T00:24:14.028Z,2.13
2022-10-24T00:27:00.991Z,2.30
2022-10-24T00:29:48.364Z,2.00
2022-10-24T00:32:36.363Z,2.03
2022-10-24T00:35:23.467Z,2.27
2022-10-24T00:38:10.385Z,2.27
2022-10-24T00:40:57.518Z,1.90
2022-10-24T00:43:44.786Z,1.63
2022-10-24T00:46:31.738Z,1.80
2022-10-24T00:49:22.781Z,1.90
2022-10-24T00:52:11.436Z,1.60
2022-10-24T00:55:01.277Z,1.70
2022-10-24T00:57:52.507Z,1.60
2022-10-24T01:00:39.595Z,1.33
2022-10-24T01:03:27.086Z,1.87
2022-10-24T01:06:16.906Z,1.90
2022-10-24T01:09:16.627Z,1.93
2022-10-24T01:12:31.247Z,2.00
2022-10-24T01:15:40.457Z,1.93
2022-10-24T01:18:49.891Z,2.00
2022-10-24T01:21:41.195Z,1.97
2022-10-24T01:25:08.939Z,1.70
2022-10-24T01:28:11.668Z,1.80
2022-10-24T01:31:12.044Z,1.83
2022-10-24T01:34:05.031Z,1.43
2022-10-24T01:37:03.420Z,1.50
2022-10-24T01:39:56.574Z,1.63
2022-10-24T01:42:45.962Z,1.33
2022-10-24T01:45:35.980Z,1.40
2022-10-24T01:48:26.053Z,1.27
2022-10-24T01:51:17.115Z,1.30
2022-10-24T01:54:04.340Z,1.30
2022-10-24T01:56:51.978Z,1.20
2022-10-24T01:59:43.359Z,1.40
2022-10-24T02:02:43.282Z,1.40
2022-10-24T02:05:42.901Z,1.10
2022-10-24T02:08:34.643Z,1.23
2022-10-24T02:11:21.793Z,1.50
2022-10-24T02:14:17.915Z,1.20
2022-10-24T02:17:04.897Z,1.57
2022-10-24T02:19:52.116Z,1.40
2022-10-24T02:22:54.407Z,1.20
2022-10-24T02:28:43.066Z,1.50
2022-10-24T02:31:36.006Z,1.20
2022-10-24T02:34:25.614Z,1.37
2022-10-24T02:37:15.072Z,1.30
2022-10-24T02:40:05.873Z,1.10
2022-10-24T02:42:56.308Z,1.40
2022-10-24T02:45:43.849Z,1.37
2022-10-24T02:48:36.064Z,1.23
2022-10-24T02:51:27.762Z,1.13
2022-10-24T02:54:14.938Z,1.40
2022-10-24T02:57:03.418Z,1.43
2022-10-24T02:59:50.313Z,1.37
2022-10-24T03:02:37.253Z,1.80
2022-10-24T03:05:24.294Z,1.50
2022-10-24T03:08:12.842Z,1.30
2022-10-24T03:10:59.815Z,1.60
2022-10-24T03:13:46.743Z,1.33
2022-10-24T03:16:33.767Z,1.50
2022-10-24T03:19:20.785Z,1.50
2022-10-24T03:22:07.734Z,1.33
2022-10-24T03:24:55.514Z,1.67
2022-10-24T03:27:42.969Z,1.40
2022-10-24T03:30:30.198Z,1.43
2022-10-24T03:33:17.178Z,1.73
2022-10-24T03:36:05.484Z,1.70
2022-10-24T03:38:52.462Z,1.40
2022-10-24T03:41:39.379Z,1.43
2022-10-24T03:44:26.387Z,1.30
2022-10-24T03:47:13.418Z,1.23
2022-10-24T03:50:00.443Z,1.33
2022-10-24T03:52:47.725Z,1.27
2022-10-24T03:55:35.177Z,1.60
2022-10-24T03:58:22.122Z,1.40
2022-10-24T04:01:10.592Z,1.20
2022-10-24T04:03:57.566Z,1.20
2022-10-24T04:06:44.517Z,1.33
2022-10-24T04:09:31.598Z,1.33
2022-10-24T04:12:18.595Z,1.53
2022-10-24T04:15:06.220Z,1.20
2022-10-24T04:17:53.169Z,1.57
2022-10-24T04:20:40.178Z,1.57
2022-10-24T04:23:27.339Z,1.40
2022-10-24T04:26:16.432Z,1.50
2022-10-24T04:29:03.546Z,1.30
2022-10-24T04:31:50.481Z,1.37
2022-10-24T04:34:37.445Z,1.17
2022-10-24T04:37:24.410Z,1.30
2022-10-24T04:40:11.567Z,1.73
2022-10-24T04:42:58.499Z,1.20
2022-10-24T04:45:46.393Z,2.13
2022-10-24T04:48:33.561Z,1.90
2022-10-24T04:51:22.458Z,2.03
2022-10-24T04:54:09.706Z,1.90
2022-10-24T04:56:56.638Z,1.50
2022-10-24T04:59:43.697Z,1.40
2022-10-24T05:02:30.671Z,1.23
2022-10-24T05:05:18.011Z,1.40
2022-10-24T05:08:05.236Z,1.13
2022-10-24T05:10:52.170Z,1.37
2022-10-24T05:13:39.731Z,1.33
2022-10-24T05:16:26.661Z,1.33
2022-10-24T05:19:14.314Z,1.60
2022-10-24T05:22:01.255Z,1.20
2022-10-24T05:24:48.241Z,1.10
2022-10-24T05:27:35.429Z,1.30
2022-10-24T05:30:22.422Z,1.27
2022-10-24T05:33:09.395Z,1.30
2022-10-24T05:35:56.418Z,1.30
2022-10-24T05:38:43.388Z,1.50
2022-10-24T05:41:30.381Z,1.30
2022-10-24T05:44:17.323Z,1.27
2022-10-24T05:47:04.393Z,1.33
2022-10-24T05:49:51.428Z,1.40
2022-10-24T05:52:44.572Z,1.27
2022-10-24T05:55:34.687Z,1.57
2022-10-24T05:58:22.388Z,1.27
2022-10-24T06:01:09.415Z,1.57
2022-10-24T06:03:56.765Z,1.27
2022-10-24T06:06:45.138Z,1.60
2022-10-24T06:09:32.086Z,1.33
2022-10-24T06:12:19.069Z,1.77
2022-10-24T06:15:08.008Z,1.40
2022-10-24T06:17:54.962Z,1.40
2022-10-24T06:20:41.865Z,1.63
2022-10-24T06:23:34.072Z,1.40
2022-10-24T06:26:23.262Z,1.50
2022-10-24T06:29:11.426Z,1.67
2022-10-24T06:31:58.381Z,1.70
2022-10-24T06:34:45.393Z,1.50
2022-10-24T06:37:32.395Z,1.77
2022-10-24T06:40:19.385Z,1.20
2022-10-24T06:43:06.632Z,1.40
2022-10-24T06:45:53.628Z,1.40
2022-10-24T06:48:40.983Z,1.40
2022-10-24T06:51:27.922Z,1.50
2022-10-24T06:54:15.654Z,1.50
2022-10-24T06:57:02.659Z,1.47
2022-10-24T06:59:49.620Z,1.60
2022-10-24T07:02:36.717Z,1.63
2022-10-24T07:05:23.652Z,2.00
2022-10-24T07:08:11.038Z,1.50
2022-10-24T07:10:58.043Z,1.50
2022-10-24T07:13:45.062Z,1.70
2022-10-24T07:16:32.184Z,1.10
2022-10-24T07:19:19.112Z,1.50
2022-10-24T07:22:06.420Z,1.40
2022-10-24T07:24:54.440Z,1.60
2022-10-24T07:27:41.538Z,1.63
2022-10-24T07:30:28.485Z,1.40
2022-10-24T07:33:16.547Z,1.43
2022-10-24T07:36:04.034Z,1.40
2022-10-24T07:38:53.159Z,1.40
2022-10-24T07:41:41.681Z,1.37
2022-10-24T07:44:28.654Z,2.00
2022-10-24T07:47:15.606Z,1.30
2022-10-24T07:50:04.143Z,1.63
2022-10-24T07:52:51.054Z,3.00
2022-10-24T07:55:39.613Z,2.60
2022-10-24T07:58:26.979Z,1.90
2022-10-24T08:01:20.093Z,1.83
2022-10-24T08:04:07.075Z,1.83
2022-10-24T08:06:54.003Z,1.50
2022-10-24T08:09:43.538Z,1.70
2022-10-24T08:12:30.513Z,1.60
2022-10-24T08:15:17.478Z,1.60
2022-10-24T08:18:04.714Z,1.90
2022-10-24T08:21:02.705Z,1.90
2022-10-24T08:23:52.430Z,1.10
2022-10-24T08:26:41.257Z,1.70
2022-10-24T08:29:28.483Z,1.63
2022-10-24T08:32:15.422Z,1.80
2022-10-24T08:35:02.445Z,1.57
2022-10-24T08:37:49.371Z,1.47
2022-10-24T08:40:36.417Z,1.73
2022-10-24T08:43:24.449Z,1.50
2022-10-24T08:46:27.288Z,1.60
2022-10-24T08:49:21.293Z,1.60
2022-10-24T08:52:16.973Z,1.60
2022-10-24T08:55:25.123Z,1.47
2022-10-24T08:58:32.011Z,1.50
2022-10-24T09:01:50.637Z,1.60
2022-10-24T09:04:45.352Z,1.90
2022-10-24T09:07:32.305Z,3.93
2022-10-24T09:10:26.606Z,3.60
2022-10-24T09:13:15.290Z,2.30
2022-10-24T09:16:02.729Z,1.60
2022-10-24T09:18:53.431Z,1.87
2022-10-24T09:21:42.539Z,1.40
2022-10-24T09:24:37.000Z,2.00
2022-10-24T09:27:32.842Z,2.00
2022-10-24T09:30:27.455Z,3.90
2022-10-24T09:33:27.520Z,2.83
2022-10-24T09:36:17.464Z,1.83
2022-10-24T09:39:25.319Z,2.30
2022-10-24T09:42:21.901Z,1.90
2022-10-24T09:45:37.915Z,1.80
2022-10-24T09:48:32.512Z,3.70
2022-10-24T09:51:42.226Z,3.27
2022-10-24T09:54:32.128Z,2.33
2022-10-24T09:57:19.158Z,2.10
2022-10-24T10:00:07.658Z,1.53
2022-10-24T10:03:24.129Z,1.53
2022-10-24T10:06:17.716Z,1.33
2022-10-24T10:09:13.648Z,1.30
2022-10-24T10:12:03.749Z,1.40
2022-10-24T10:14:52.031Z,1.50
2022-10-24T10:17:50.348Z,1.40
2022-10-24T10:20:42.669Z,1.33
2022-10-24T10:23:49.971Z,1.57
2022-10-24T10:26:45.214Z,0.93
2022-10-24T10:29:32.645Z,1.30
2022-10-24T10:32:27.735Z,1.67
2022-10-24T10:35:29.759Z,1.77
2022-10-24T10:38:34.175Z,1.27
2022-10-24T10:41:21.038Z,1.50
2022-10-24T10:44:43.432Z,1.80
2022-10-24T10:47:39.508Z,1.70
2022-10-24T10:50:44.240Z,1.40
2022-10-24T10:53:46.338Z,1.90
2022-10-24T10:56:57.539Z,1.60
2022-10-24T11:00:09.252Z,1.60
2022-10-24T11:03:07.777Z,1.90
2022-10-24T11:06:12.181Z,1.90
2022-10-24T11:09:23.073Z,1.50
2022-10-24T11:12:21.121Z,1.63
2022-10-24T11:15:20.785Z,1.90
2022-10-24T11:18:17.646Z,1.97
2022-10-24T11:21:10.935Z,2.17
2022-10-24T11:24:17.329Z,2.30
2022-10-24T11:27:13.979Z,2.17
2022-10-24T11:30:11.963Z,2.00
2022-10-24T11:33:03.354Z,2.10
2022-10-24T11:36:07.852Z,1.67
2022-10-24T11:39:06.189Z,1.63
2022-10-24T11:42:01.920Z,2.10
2022-10-24T11:45:01.394Z,1.83
2022-10-24T11:48:02.883Z,1.57
2022-10-24T11:50:55.841Z,1.53
2022-10-24T11:53:56.930Z,1.93
2022-10-24T11:56:51.751Z,1.57
2022-10-24T11:59:41.033Z,1.73
2022-10-24T12:02:48.286Z,2.00
2022-10-24T12:05:57.277Z,2.00
2022-10-24T12:08:55.980Z,2.00
2022-10-24T12:12:27.401Z,1.70
2022-10-24T12:15:17.187Z,1.50
2022-10-24T12:18:28.973Z,1.40
2022-10-24T12:21:26.290Z,1.67
2022-10-24T12:24:39.473Z,1.47
2022-10-24T12:27:37.906Z,1.53
2022-10-24T12:30:27.344Z,1.43
2022-10-24T12:33:23.158Z,1.30
2022-10-24T12:36:10.762Z,1.43
2022-10-24T12:38:57.613Z,1.17
2022-10-24T12:41:44.803Z,1.23
2022-10-24T12:44:34.539Z,1.20
2022-10-24T12:47:35.076Z,1.57
2022-10-24T12:50:22.130Z,1.30
2022-10-24T12:53:38.588Z,1.53
2022-10-24T12:56:25.550Z,1.53
2022-10-24T12:59:28.938Z,1.40
2022-10-24T13:02:16.043Z,2.20
2022-10-24T13:05:34.015Z,1.90
2022-10-24T13:08:42.439Z,1.60
2022-10-24T13:11:54.132Z,1.77
2022-10-24T13:15:13.545Z,1.40
2022-10-24T13:18:19.085Z,1.40
2022-10-24T13:21:16.873Z,1.67
2022-10-24T13:24:23.390Z,1.80
2022-10-24T13:27:14.598Z,1.30
2022-10-24T13:30:05.206Z,1.00
2022-10-24T13:33:30.091Z,1.40
2022-10-24T13:36:27.897Z,1.10
2022-10-24T13:39:24.341Z,1.57
2022-10-24T13:42:40.060Z,1.20
2022-10-24T13:45:52.051Z,1.13
2022-10-24T13:48:46.337Z,1.10
2022-10-24T13:51:47.481Z,1.10
2022-10-24T13:54:38.287Z,0.97
2022-10-24T13:57:37.391Z,1.37
2022-10-24T14:00:31.403Z,0.90
2022-10-24T14:03:22.434Z,1.20
2022-10-24T14:06:09.809Z,1.50
2022-10-24T14:09:06.970Z,1.57
2022-10-24T14:11:56.468Z,1.27
2022-10-24T14:14:48.291Z,0.80
2022-10-24T14:17:35.800Z,0.90
2022-10-24T14:20:31.116Z,1.00
2022-10-24T14:23:28.332Z,1.33
2022-10-24T14:26:20.548Z,1.00
2022-10-24T14:29:23.119Z,1.23
2022-10-24T14:32:14.391Z,1.23
2022-10-24T14:37:53.798Z,1.13
2022-10-24T14:40:42.828Z,1.13
2022-10-24T14:43:30.545Z,1.10
2022-10-24T14:46:18.677Z,1.03
2022-10-24T14:49:27.920Z,1.27
2022-10-24T14:52:22.390Z,0.83
2022-10-24T14:55:21.309Z,0.97
2022-10-24T14:58:22.100Z,1.23
2022-10-24T15:01:18.810Z,1.13
2022-10-24T15:04:05.867Z,1.10
2022-10-24T15:06:56.103Z,0.90
2022-10-24T15:09:54.860Z,0.90
2022-10-24T15:12:51.858Z,1.03
2022-10-24T15:15:44.833Z,1.00
2022-10-24T15:18:42.286Z,1.10
2022-10-24T15:21:41.730Z,1.20
2022-10-24T15:24:28.759Z,1.50
2022-10-24T15:27:38.329Z,0.93
2022-10-24T15:30:28.618Z,1.20
2022-10-24T15:33:16.227Z,1.10
2022-10-24T15:36:06.070Z,1.10
2022-10-24T15:38:59.108Z,1.13
2022-10-24T15:41:46.160Z,1.20
2022-10-24T15:44:33.539Z,1.10
2022-10-24T15:47:23.849Z,1.10
2022-10-24T15:50:18.882Z,1.20
2022-10-24T15:53:06.664Z,0.93
2022-10-24T15:55:53.592Z,1.33
2022-10-24T15:58:40.935Z,1.20
2022-10-24T16:01:32.729Z,1.27
2022-10-24T16:04:21.598Z,1.30
2022-10-24T16:10:01.895Z,1.53
2022-10-24T16:12:50.313Z,1.27
2022-10-24T16:15:37.870Z,1.23
2022-10-24T16:18:24.815Z,1.20
2022-10-24T16:21:17.405Z,1.30
2022-10-24T16:24:05.361Z,1.30
2022-10-24T16:26:52.514Z,1.27
2022-10-24T16:29:39.429Z,1.57
2022-10-24T16:32:26.429Z,1.33
2022-10-24T16:35:18.289Z,1.63
2022-10-24T16:38:07.305Z,1.33
2022-10-24T16:40:54.272Z,1.60
2022-10-24T16:43:42.551Z,1.27
2022-10-24T16:46:31.267Z,1.50
2022-10-24T16:49:18.431Z,1.57
2022-10-24T16:52:05.760Z,1.60
2022-10-24T16:54:53.357Z,1.17
2022-10-24T16:57:40.262Z,1.60
2022-10-24T17:00:27.645Z,1.33
2022-10-24T17:03:14.914Z,1.53
2022-10-24T17:06:03.065Z,1.30
2022-10-24T17:08:50.036Z,1.47
2022-10-24T17:11:45.316Z,1.73
2022-10-24T17:14:34.466Z,1.37
2022-10-24T17:17:21.469Z,1.40
2022-10-24T17:20:10.014Z,1.20
2022-10-24T17:22:57.157Z,1.20
2022-10-24T17:25:45.652Z,1.37
2022-10-24T17:28:33.427Z,1.30
2022-10-24T17:31:20.760Z,1.40
2022-10-24T17:34:09.574Z,1.30
2022-10-24T17:37:07.755Z,1.30
2022-10-24T17:40:01.234Z,1.20
2022-10-24T17:42:48.964Z,1.33
2022-10-24T17:45:36.428Z,1.47
2022-10-24T17:48:24.076Z,1.37
2022-10-24T17:51:14.955Z,1.37
2022-10-24T17:54:02.350Z,1.17
2022-10-24T17:56:49.580Z,1.20
2022-10-24T17:59:37.070Z,1.23
2022-10-24T18:02:24.097Z,1.13
2022-10-24T18:05:11.217Z,0.97
2022-10-24T18:07:58.165Z,1.07
2022-10-24T18:10:45.183Z,1.10
2022-10-24T18:13:35.572Z,0.87
2022-10-24T18:16:23.633Z,0.93
2022-10-24T18:19:12.144Z,0.80
2022-10-24T18:21:59.179Z,1.10
2022-10-24T18:24:46.188Z,1.20
2022-10-24T18:27:34.174Z,0.93
2022-10-24T18:30:21.198Z,1.10
2022-10-24T18:33:08.151Z,1.00
2022-10-24T18:35:55.136Z,1.00
2022-10-24T18:38:43.116Z,1.30
2022-10-24T18:41:45.029Z,1.20
2022-10-24T18:44:34.178Z,0.90
2022-10-24T18:47:24.814Z,1.13
2022-10-24T18:50:18.858Z,1.03
2022-10-24T18:53:10.639Z,1.00
2022-10-24T18:55:57.697Z,1.00
2022-10-24T18:58:45.090Z,1.00
2022-10-24T19:01:43.982Z,1.00
2022-10-24T19:04:34.398Z,0.83
2022-10-24T19:07:22.193Z,0.93
2022-10-24T19:10:18.217Z,1.10
2022-10-24T19:13:05.229Z,0.70
2022-10-24T19:16:00.586Z,1.30
2022-10-24T19:18:58.280Z,1.20
2022-10-24T19:21:47.703Z,1.20
2022-10-24T19:24:37.167Z,1.10
2022-10-24T19:27:27.903Z,1.30
2022-10-24T19:30:15.378Z,1.10
2022-10-24T19:33:02.471Z,1.53
2022-10-24T19:35:49.450Z,1.30
2022-10-24T19:38:37.102Z,1.37
2022-10-24T19:41:24.338Z,1.17
2022-10-24T19:44:11.796Z,1.20
2022-10-24T19:46:58.716Z,1.63
2022-10-24T19:49:45.658Z,1.10
2022-10-24T19:52:32.627Z,1.30
2022-10-24T19:55:19.613Z,1.30
2022-10-24T19:58:15.589Z,0.80
2022-10-24T20:01:14.293Z,1.00
2022-10-24T20:04:01.544Z,0.90
2022-10-24T20:06:48.511Z,1.07
2022-10-24T20:09:36.074Z,1.00
2022-10-24T20:12:23.467Z,0.90
2022-10-24T20:15:10.708Z,0.83
2022-10-24T20:17:57.706Z,0.90
2022-10-24T20:20:44.754Z,0.83
2022-10-24T20:23:32.723Z,0.77
2022-10-24T20:26:22.311Z,0.73
2022-10-24T20:29:09.325Z,1.00
2022-10-24T20:31:56.287Z,0.80
2022-10-24T20:34:43.288Z,0.90
2022-10-24T20:37:30.609Z,0.80
2022-10-24T20:40:17.571Z,0.70
2022-10-24T20:43:06.966Z,0.70
2022-10-24T20:45:53.999Z,0.70
2022-10-24T20:48:40.922Z,0.70
2022-10-24T20:51:28.240Z,0.80
2022-10-24T20:54:15.253Z,0.90
2022-10-24T20:57:02.201Z,0.70
2022-10-24T20:59:49.222Z,0.87
2022-10-24T21:02:36.810Z,1.07
2022-10-24T21:05:25.199Z,0.90
2022-10-24T21:08:12.168Z,1.00
2022-10-24T21:10:59.150Z,0.73
2022-10-24T21:13:46.096Z,0.93
2022-10-24T21:16:34.001Z,1.00
2022-10-24T21:19:20.996Z,0.67
2022-10-24T21:22:08.149Z,0.80
2022-10-24T21:24:55.123Z,0.80
2022-10-24T21:27:42.063Z,0.83
2022-10-24T21:30:29.002Z,0.63
2022-10-24T21:33:15.944Z,0.80
2022-10-24T21:36:07.971Z,0.77
2022-10-24T21:38:57.804Z,0.80
2022-10-24T21:41:45.075Z,0.77
2022-10-24T21:44:34.451Z,0.80
2022-10-24T21:47:21.427Z,0.73
2022-10-24T21:50:08.697Z,0.90
2022-10-24T21:52:55.643Z,0.90
2022-10-24T21:55:42.569Z,0.90
2022-10-24T21:58:29.510Z,1.00
2022-10-24T22:01:19.409Z,0.90
2022-10-24T22:04:07.255Z,0.80
2022-10-24T22:06:54.198Z,1.00
2022-10-24T22:09:41.156Z,1.00
2022-10-24T22:12:28.110Z,0.80
2022-10-24T22:15:15.078Z,0.93
2022-10-24T22:18:02.003Z,0.90
2022-10-24T22:20:49.262Z,0.87
2022-10-24T22:23:36.337Z,1.00
2022-10-24T22:26:24.321Z,0.77
2022-10-24T22:29:14.709Z,1.07
2022-10-24T22:32:01.942Z,0.90
2022-10-24T22:34:49.087Z,0.90
2022-10-24T22:37:36.358Z,0.70
2022-10-24T22:40:28.901Z,0.90
2022-10-24T22:43:16.143Z,1.00
2022-10-24T22:46:15.536Z,0.73
2022-10-24T22:49:21.673Z,0.80
2022-10-24T22:52:11.326Z,0.67
2022-10-24T22:54:58.625Z,0.80
2022-10-24T22:57:45.878Z,1.00
2022-10-24T23:00:33.132Z,0.90
2022-10-24T23:03:55.075Z,0.70
2022-10-24T23:07:05.920Z,1.10
2022-10-24T23:09:53.275Z,0.80
2022-10-24T23:12:40.682Z,1.00
2022-10-24T23:15:28.111Z,0.97
2022-10-24T23:18:16.512Z,0.90
2022-10-24T23:21:13.869Z,1.10
2022-10-24T23:24:01.098Z,0.93
2022-10-24T23:27:06.464Z,0.90
2022-10-24T23:29:53.855Z,1.07
2022-10-24T23:32:41.090Z,0.80
2022-10-24T23:35:28.343Z,1.10
2022-10-24T23:38:15.522Z,1.00
2022-10-24T23:41:02.714Z,0.70
2022-10-24T23:43:50.071Z,1.07
2022-10-24T23:46:50.732Z,0.80
2022-10-24T23:49:51.832Z,0.90
2022-10-24T23:53:07.194Z,0.90
2022-10-24T23:55:54.454Z,0.87
2022-10-24T23:58:41.454Z,0.90
